sensor_id;sensor_type;location;lat;lon;timestamp;P1;durP1;ratioP1;P2;durP2;ratioP2
13564;SDS011;6854;48.096;11.278;2023-09-30T00:01:45;47.37;;;17.43;;
13564;SDS011;6854;48.096;11.278;2023-09-30T00:04:15;40.30;;;16.57;;
13564;SDS011;6854;48.096;11.278;2023-09-30T00:06:44;46.43;;;16.60;;
13564;SDS011;6854;48.096;11.278;2023-09-30T00:09:11;41.07;;;16.80;;
13564;SDS011;6854;48.096;11.278;2023-09-30T00:11:39;41.53;;;17.33;;
13564;SDS011;6854;48.096;11.278;2023-09-30T00:14:08;39.33;;;16.67;;
13564;SDS011;6854;48.096;11.278;2023-09-30T00:16:35;40.60;;;17.60;;
13564;SDS011;6854;48.096;11.278;2023-09-30T00:19:01;55.70;;;17.50;;
13564;SDS011;6854;48.096;11.278;2023-09-30T00:21:29;48.63;;;17.90;;
13564;SDS011;6854;48.096;11.278;2023-09-30T00:23:58;45.27;;;17.47;;
13564;SDS011;6854;48.096;11.278;2023-09-30T00:26:25;45.10;;;17.67;;
13564;SDS011;6854;48.096;11.278;2023-09-30T00:28:55;46.03;;;18.83;;
13564;SDS011;6854;48.096;11.278;2023-09-30T00:31:23;49.23;;;19.57;;
13564;SDS011;6854;48.096;11.278;2023-09-30T00:33:50;52.50;;;19.10;;
13564;SDS011;6854;48.096;11.278;2023-09-30T00:36:16;49.47;;;18.37;;
13564;SDS011;6854;48.096;11.278;2023-09-30T00:38:44;56.00;;;17.67;;
13564;SDS011;6854;48.096;11.278;2023-09-30T00:41:11;49.53;;;19.13;;
13564;SDS011;6854;48.096;11.278;2023-09-30T00:43:39;42.07;;;18.33;;
13564;SDS011;6854;48.096;11.278;2023-09-30T00:46:09;43.77;;;18.17;;
13564;SDS011;6854;48.096;11.278;2023-09-30T00:48:37;42.70;;;18.33;;
13564;SDS011;6854;48.096;11.278;2023-09-30T00:51:04;41.73;;;16.30;;
13564;SDS011;6854;48.096;11.278;2023-09-30T00:53:32;37.00;;;15.47;;
13564;SDS011;6854;48.096;11.278;2023-09-30T00:55:58;38.57;;;15.63;;
13564;SDS011;6854;48.096;11.278;2023-09-30T00:58:25;35.90;;;14.93;;
13564;SDS011;6854;48.096;11.278;2023-09-30T01:00:53;39.53;;;14.77;;
13564;SDS011;6854;48.096;11.278;2023-09-30T01:03:22;44.63;;;15.83;;
13564;SDS011;6854;48.096;11.278;2023-09-30T01:05:49;41.33;;;15.47;;
13564;SDS011;6854;48.096;11.278;2023-09-30T01:08:16;40.93;;;15.80;;
13564;SDS011;6854;48.096;11.278;2023-09-30T01:10:43;36.00;;;15.03;;
13564;SDS011;6854;48.096;11.278;2023-09-30T01:13:10;40.40;;;15.70;;
13564;SDS011;6854;48.096;11.278;2023-09-30T01:15:37;37.57;;;15.00;;
13564;SDS011;6854;48.096;11.278;2023-09-30T01:18:04;47.10;;;16.47;;
13564;SDS011;6854;48.096;11.278;2023-09-30T01:20:31;48.70;;;17.93;;
13564;SDS011;6854;48.096;11.278;2023-09-30T01:23:02;40.77;;;15.17;;
13564;SDS011;6854;48.096;11.278;2023-09-30T01:25:30;39.90;;;16.03;;
13564;SDS011;6854;48.096;11.278;2023-09-30T01:27:58;44.13;;;15.10;;
13564;SDS011;6854;48.096;11.278;2023-09-30T01:30:31;42.93;;;17.00;;
13564;SDS011;6854;48.096;11.278;2023-09-30T01:32:58;41.93;;;16.77;;
13564;SDS011;6854;48.096;11.278;2023-09-30T01:35:25;43.70;;;16.37;;
13564;SDS011;6854;48.096;11.278;2023-09-30T01:37:52;40.73;;;15.77;;
13564;SDS011;6854;48.096;11.278;2023-09-30T01:40:19;43.43;;;16.90;;
13564;SDS011;6854;48.096;11.278;2023-09-30T01:42:45;46.43;;;15.70;;
13564;SDS011;6854;48.096;11.278;2023-09-30T01:45:13;46.13;;;18.00;;
13564;SDS011;6854;48.096;11.278;2023-09-30T01:47:39;47.67;;;17.00;;
13564;SDS011;6854;48.096;11.278;2023-09-30T01:50:05;41.07;;;17.07;;
13564;SDS011;6854;48.096;11.278;2023-09-30T01:52:31;39.40;;;15.90;;
13564;SDS011;6854;48.096;11.278;2023-09-30T01:54:57;48.70;;;16.77;;
13564;SDS011;6854;48.096;11.278;2023-09-30T01:57:22;37.97;;;15.70;;
13564;SDS011;6854;48.096;11.278;2023-09-30T01:59:49;41.80;;;15.80;;
13564;SDS011;6854;48.096;11.278;2023-09-30T02:02:14;43.67;;;15.93;;
13564;SDS011;6854;48.096;11.278;2023-09-30T02:04:40;44.50;;;16.67;;
13564;SDS011;6854;48.096;11.278;2023-09-30T02:07:06;41.70;;;16.57;;
13564;SDS011;6854;48.096;11.278;2023-09-30T02:09:32;36.63;;;16.40;;
13564;SDS011;6854;48.096;11.278;2023-09-30T02:11:58;43.47;;;17.43;;
13564;SDS011;6854;48.096;11.278;2023-09-30T02:14:24;41.43;;;16.57;;
13564;SDS011;6854;48.096;11.278;2023-09-30T02:16:50;40.50;;;17.17;;
13564;SDS011;6854;48.096;11.278;2023-09-30T02:19:16;45.20;;;17.33;;
13564;SDS011;6854;48.096;11.278;2023-09-30T02:21:41;40.53;;;15.97;;
13564;SDS011;6854;48.096;11.278;2023-09-30T02:24:07;41.30;;;17.57;;
13564;SDS011;6854;48.096;11.278;2023-09-30T02:26:33;36.90;;;16.67;;
13564;SDS011;6854;48.096;11.278;2023-09-30T02:28:58;35.47;;;16.00;;
13564;SDS011;6854;48.096;11.278;2023-09-30T02:31:24;35.80;;;15.50;;
13564;SDS011;6854;48.096;11.278;2023-09-30T02:33:50;38.67;;;15.23;;
13564;SDS011;6854;48.096;11.278;2023-09-30T02:36:16;40.97;;;15.27;;
13564;SDS011;6854;48.096;11.278;2023-09-30T02:38:41;52.70;;;16.37;;
13564;SDS011;6854;48.096;11.278;2023-09-30T02:41:08;44.27;;;16.73;;
13564;SDS011;6854;48.096;11.278;2023-09-30T02:43:36;37.77;;;14.90;;
13564;SDS011;6854;48.096;11.278;2023-09-30T02:46:03;41.70;;;16.20;;
13564;SDS011;6854;48.096;11.278;2023-09-30T02:48:29;37.00;;;15.93;;
13564;SDS011;6854;48.096;11.278;2023-09-30T02:50:54;38.00;;;16.33;;
13564;SDS011;6854;48.096;11.278;2023-09-30T02:53:20;37.60;;;15.53;;
13564;SDS011;6854;48.096;11.278;2023-09-30T02:55:47;47.57;;;14.97;;
13564;SDS011;6854;48.096;11.278;2023-09-30T02:58:13;32.37;;;14.77;;
13564;SDS011;6854;48.096;11.278;2023-09-30T03:00:39;37.07;;;15.13;;
13564;SDS011;6854;48.096;11.278;2023-09-30T03:03:05;38.67;;;14.53;;
13564;SDS011;6854;48.096;11.278;2023-09-30T03:05:33;38.50;;;14.93;;
13564;SDS011;6854;48.096;11.278;2023-09-30T03:07:59;42.47;;;15.60;;
13564;SDS011;6854;48.096;11.278;2023-09-30T03:10:27;39.10;;;16.00;;
13564;SDS011;6854;48.096;11.278;2023-09-30T03:12:54;36.20;;;15.60;;
13564;SDS011;6854;48.096;11.278;2023-09-30T03:15:19;34.53;;;14.50;;
13564;SDS011;6854;48.096;11.278;2023-09-30T03:17:49;41.60;;;15.00;;
13564;SDS011;6854;48.096;11.278;2023-09-30T03:20:17;45.53;;;16.13;;
13564;SDS011;6854;48.096;11.278;2023-09-30T03:22:45;37.60;;;13.80;;
13564;SDS011;6854;48.096;11.278;2023-09-30T03:25:14;32.47;;;13.20;;
13564;SDS011;6854;48.096;11.278;2023-09-30T03:27:45;34.67;;;15.20;;
13564;SDS011;6854;48.096;11.278;2023-09-30T03:30:12;36.50;;;13.60;;
13564;SDS011;6854;48.096;11.278;2023-09-30T03:32:42;36.93;;;14.53;;
13564;SDS011;6854;48.096;11.278;2023-09-30T03:35:11;37.77;;;14.10;;
13564;SDS011;6854;48.096;11.278;2023-09-30T03:37:49;39.23;;;14.57;;
13564;SDS011;6854;48.096;11.278;2023-09-30T03:40:15;35.13;;;13.43;;
13564;SDS011;6854;48.096;11.278;2023-09-30T03:42:45;34.40;;;13.63;;
13564;SDS011;6854;48.096;11.278;2023-09-30T03:45:14;31.80;;;13.83;;
13564;SDS011;6854;48.096;11.278;2023-09-30T03:47:40;33.40;;;13.63;;
13564;SDS011;6854;48.096;11.278;2023-09-30T03:50:07;36.93;;;13.30;;
13564;SDS011;6854;48.096;11.278;2023-09-30T03:52:40;27.60;;;12.37;;
13564;SDS011;6854;48.096;11.278;2023-09-30T03:55:11;39.47;;;13.03;;
13564;SDS011;6854;48.096;11.278;2023-09-30T03:57:37;34.83;;;13.53;;
13564;SDS011;6854;48.096;11.278;2023-09-30T04:00:05;34.20;;;12.50;;
13564;SDS011;6854;48.096;11.278;2023-09-30T04:02:33;35.60;;;12.30;;
13564;SDS011;6854;48.096;11.278;2023-09-30T04:05:01;35.80;;;12.70;;
13564;SDS011;6854;48.096;11.278;2023-09-30T04:07:29;39.27;;;12.50;;
13564;SDS011;6854;48.096;11.278;2023-09-30T04:09:55;28.60;;;12.40;;
13564;SDS011;6854;48.096;11.278;2023-09-30T04:12:21;32.33;;;12.87;;
13564;SDS011;6854;48.096;11.278;2023-09-30T04:14:52;30.90;;;11.80;;
13564;SDS011;6854;48.096;11.278;2023-09-30T04:17:18;33.03;;;11.70;;
13564;SDS011;6854;48.096;11.278;2023-09-30T04:19:44;30.10;;;11.63;;
13564;SDS011;6854;48.096;11.278;2023-09-30T04:22:13;34.40;;;12.43;;
13564;SDS011;6854;48.096;11.278;2023-09-30T04:24:38;31.20;;;12.67;;
13564;SDS011;6854;48.096;11.278;2023-09-30T04:27:05;33.07;;;13.27;;
13564;SDS011;6854;48.096;11.278;2023-09-30T04:29:34;35.00;;;12.40;;
13564;SDS011;6854;48.096;11.278;2023-09-30T04:32:04;29.70;;;12.70;;
13564;SDS011;6854;48.096;11.278;2023-09-30T04:34:29;34.00;;;13.30;;
13564;SDS011;6854;48.096;11.278;2023-09-30T04:36:55;34.23;;;13.63;;
13564;SDS011;6854;48.096;11.278;2023-09-30T04:39:21;31.03;;;13.23;;
13564;SDS011;6854;48.096;11.278;2023-09-30T04:41:47;33.10;;;13.50;;
13564;SDS011;6854;48.096;11.278;2023-09-30T04:44:13;30.00;;;11.83;;
13564;SDS011;6854;48.096;11.278;2023-09-30T04:46:39;34.03;;;12.77;;
13564;SDS011;6854;48.096;11.278;2023-09-30T04:49:08;33.00;;;12.90;;
13564;SDS011;6854;48.096;11.278;2023-09-30T04:51:34;33.17;;;13.17;;
13564;SDS011;6854;48.096;11.278;2023-09-30T04:54:00;28.70;;;12.10;;
13564;SDS011;6854;48.096;11.278;2023-09-30T04:56:27;35.37;;;11.90;;
13564;SDS011;6854;48.096;11.278;2023-09-30T04:58:53;37.63;;;13.40;;
13564;SDS011;6854;48.096;11.278;2023-09-30T05:01:21;27.53;;;12.23;;
13564;SDS011;6854;48.096;11.278;2023-09-30T05:03:48;39.27;;;12.50;;
13564;SDS011;6854;48.096;11.278;2023-09-30T05:06:14;36.40;;;13.80;;
13564;SDS011;6854;48.096;11.278;2023-09-30T05:08:40;27.87;;;12.77;;
13564;SDS011;6854;48.096;11.278;2023-09-30T05:11:07;35.07;;;13.43;;
13564;SDS011;6854;48.096;11.278;2023-09-30T05:13:32;33.70;;;13.87;;
13564;SDS011;6854;48.096;11.278;2023-09-30T05:16:01;33.00;;;13.33;;
13564;SDS011;6854;48.096;11.278;2023-09-30T05:18:28;35.17;;;14.23;;
13564;SDS011;6854;48.096;11.278;2023-09-30T05:20:59;46.73;;;14.47;;
13564;SDS011;6854;48.096;11.278;2023-09-30T05:23:26;33.20;;;13.43;;
13564;SDS011;6854;48.096;11.278;2023-09-30T05:25:53;37.57;;;13.13;;
13564;SDS011;6854;48.096;11.278;2023-09-30T05:28:22;40.40;;;14.43;;
13564;SDS011;6854;48.096;11.278;2023-09-30T05:30:52;42.70;;;15.10;;
13564;SDS011;6854;48.096;11.278;2023-09-30T05:33:19;44.50;;;14.33;;
13564;SDS011;6854;48.096;11.278;2023-09-30T05:38:13;36.80;;;14.00;;
13564;SDS011;6854;48.096;11.278;2023-09-30T05:40:42;36.87;;;14.50;;
13564;SDS011;6854;48.096;11.278;2023-09-30T05:43:09;40.00;;;14.90;;
13564;SDS011;6854;48.096;11.278;2023-09-30T05:45:37;43.90;;;14.93;;
13564;SDS011;6854;48.096;11.278;2023-09-30T05:48:14;34.50;;;15.30;;
13564;SDS011;6854;48.096;11.278;2023-09-30T05:50:44;35.03;;;14.13;;
13564;SDS011;6854;48.096;11.278;2023-09-30T05:53:12;42.13;;;14.00;;
13564;SDS011;6854;48.096;11.278;2023-09-30T05:55:39;26.50;;;12.67;;
13564;SDS011;6854;48.096;11.278;2023-09-30T05:58:12;30.10;;;13.40;;
13564;SDS011;6854;48.096;11.278;2023-09-30T06:00:39;36.83;;;12.30;;
13564;SDS011;6854;48.096;11.278;2023-09-30T06:03:07;32.60;;;13.33;;
13564;SDS011;6854;48.096;11.278;2023-09-30T06:05:33;28.90;;;12.57;;
13564;SDS011;6854;48.096;11.278;2023-09-30T06:08:07;32.23;;;12.73;;
13564;SDS011;6854;48.096;11.278;2023-09-30T06:10:35;35.07;;;12.23;;
13564;SDS011;6854;48.096;11.278;2023-09-30T06:13:03;26.87;;;12.77;;
13564;SDS011;6854;48.096;11.278;2023-09-30T06:15:30;24.13;;;11.00;;
13564;SDS011;6854;48.096;11.278;2023-09-30T06:17:56;29.03;;;11.70;;
13564;SDS011;6854;48.096;11.278;2023-09-30T06:20:26;29.50;;;10.77;;
13564;SDS011;6854;48.096;11.278;2023-09-30T06:22:57;26.83;;;10.83;;
13564;SDS011;6854;48.096;11.278;2023-09-30T06:25:33;24.33;;;11.30;;
13564;SDS011;6854;48.096;11.278;2023-09-30T06:28:04;29.90;;;10.70;;
13564;SDS011;6854;48.096;11.278;2023-09-30T06:30:35;25.97;;;10.33;;
13564;SDS011;6854;48.096;11.278;2023-09-30T06:33:02;30.23;;;9.33;;
13564;SDS011;6854;48.096;11.278;2023-09-30T06:35:30;26.77;;;10.90;;
13564;SDS011;6854;48.096;11.278;2023-09-30T06:37:59;22.10;;;9.17;;
13564;SDS011;6854;48.096;11.278;2023-09-30T06:40:26;27.10;;;10.30;;
13564;SDS011;6854;48.096;11.278;2023-09-30T06:42:56;20.53;;;9.57;;
13564;SDS011;6854;48.096;11.278;2023-09-30T06:45:23;21.57;;;9.53;;
13564;SDS011;6854;48.096;11.278;2023-09-30T06:47:51;24.73;;;9.47;;
13564;SDS011;6854;48.096;11.278;2023-09-30T06:50:19;25.77;;;8.87;;
13564;SDS011;6854;48.096;11.278;2023-09-30T06:52:46;26.53;;;9.80;;
13564;SDS011;6854;48.096;11.278;2023-09-30T06:55:14;25.93;;;9.80;;
13564;SDS011;6854;48.096;11.278;2023-09-30T06:57:42;20.93;;;8.97;;
13564;SDS011;6854;48.096;11.278;2023-09-30T07:00:11;27.33;;;9.80;;
13564;SDS011;6854;48.096;11.278;2023-09-30T07:02:41;24.00;;;9.20;;
13564;SDS011;6854;48.096;11.278;2023-09-30T07:05:14;21.53;;;8.77;;
13564;SDS011;6854;48.096;11.278;2023-09-30T07:07:42;27.13;;;9.53;;
13564;SDS011;6854;48.096;11.278;2023-09-30T07:10:09;22.00;;;9.83;;
13564;SDS011;6854;48.096;11.278;2023-09-30T07:12:36;19.97;;;8.13;;
13564;SDS011;6854;48.096;11.278;2023-09-30T07:15:04;20.17;;;8.77;;
13564;SDS011;6854;48.096;11.278;2023-09-30T07:17:34;20.73;;;8.80;;
13564;SDS011;6854;48.096;11.278;2023-09-30T07:20:01;22.57;;;8.60;;
13564;SDS011;6854;48.096;11.278;2023-09-30T07:22:29;21.10;;;8.13;;
13564;SDS011;6854;48.096;11.278;2023-09-30T07:24:56;19.50;;;8.33;;
13564;SDS011;6854;48.096;11.278;2023-09-30T07:27:31;22.33;;;8.23;;
13564;SDS011;6854;48.096;11.278;2023-09-30T07:30:01;17.37;;;7.90;;
13564;SDS011;6854;48.096;11.278;2023-09-30T07:32:31;16.63;;;7.43;;
13564;SDS011;6854;48.096;11.278;2023-09-30T07:35:03;18.43;;;8.17;;
13564;SDS011;6854;48.096;11.278;2023-09-30T07:37:35;18.00;;;8.47;;
13564;SDS011;6854;48.096;11.278;2023-09-30T07:40:16;16.20;;;7.53;;
13564;SDS011;6854;48.096;11.278;2023-09-30T07:42:42;18.87;;;7.47;;
13564;SDS011;6854;48.096;11.278;2023-09-30T07:45:12;17.40;;;7.00;;
13564;SDS011;6854;48.096;11.278;2023-09-30T07:47:47;17.37;;;6.97;;
13564;SDS011;6854;48.096;11.278;2023-09-30T07:50:19;16.10;;;6.53;;
13564;SDS011;6854;48.096;11.278;2023-09-30T07:52:55;17.60;;;8.03;;
13564;SDS011;6854;48.096;11.278;2023-09-30T07:55:29;16.27;;;7.20;;
13564;SDS011;6854;48.096;11.278;2023-09-30T07:57:58;14.13;;;6.70;;
13564;SDS011;6854;48.096;11.278;2023-09-30T08:00:28;26.80;;;8.37;;
13564;SDS011;6854;48.096;11.278;2023-09-30T08:03:01;20.30;;;7.20;;
13564;SDS011;6854;48.096;11.278;2023-09-30T08:05:31;17.60;;;7.47;;
13564;SDS011;6854;48.096;11.278;2023-09-30T08:07:59;16.00;;;7.00;;
13564;SDS011;6854;48.096;11.278;2023-09-30T08:10:26;18.97;;;7.33;;
13564;SDS011;6854;48.096;11.278;2023-09-30T08:12:56;13.00;;;6.33;;
13564;SDS011;6854;48.096;11.278;2023-09-30T17:58:42;25.67;;;9.97;;
13564;SDS011;6854;48.096;11.278;2023-09-30T18:01:09;29.40;;;10.80;;
13564;SDS011;6854;48.096;11.278;2023-09-30T18:03:36;23.70;;;10.80;;
13564;SDS011;6854;48.096;11.278;2023-09-30T18:06:06;27.13;;;10.70;;
13564;SDS011;6854;48.096;11.278;2023-09-30T18:08:35;22.67;;;10.30;;
13564;SDS011;6854;48.096;11.278;2023-09-30T18:11:01;32.93;;;10.90;;
13564;SDS011;6854;48.096;11.278;2023-09-30T18:13:29;31.73;;;11.13;;
13564;SDS011;6854;48.096;11.278;2023-09-30T18:15:56;21.53;;;9.20;;
13564;SDS011;6854;48.096;11.278;2023-09-30T18:18:23;23.50;;;11.20;;
13564;SDS011;6854;48.096;11.278;2023-09-30T18:20:51;23.50;;;11.57;;
13564;SDS011;6854;48.096;11.278;2023-09-30T18:23:17;26.27;;;11.07;;
13564;SDS011;6854;48.096;11.278;2023-09-30T18:25:43;31.73;;;11.50;;
13564;SDS011;6854;48.096;11.278;2023-09-30T18:28:10;22.50;;;10.83;;
13564;SDS011;6854;48.096;11.278;2023-09-30T18:30:39;31.47;;;12.20;;
13564;SDS011;6854;48.096;11.278;2023-09-30T18:33:06;27.07;;;11.70;;
13564;SDS011;6854;48.096;11.278;2023-09-30T18:35:36;34.33;;;11.13;;
13564;SDS011;6854;48.096;11.278;2023-09-30T18:38:02;32.83;;;11.80;;
13564;SDS011;6854;48.096;11.278;2023-09-30T18:40:29;30.07;;;12.67;;
13564;SDS011;6854;48.096;11.278;2023-09-30T18:42:55;23.20;;;11.53;;
13564;SDS011;6854;48.096;11.278;2023-09-30T18:45:21;29.50;;;11.10;;
13564;SDS011;6854;48.096;11.278;2023-09-30T18:47:48;24.00;;;11.63;;
13564;SDS011;6854;48.096;11.278;2023-09-30T18:50:15;38.37;;;13.63;;
13564;SDS011;6854;48.096;11.278;2023-09-30T18:52:42;31.33;;;13.70;;
13564;SDS011;6854;48.096;11.278;2023-09-30T18:55:12;31.60;;;14.20;;
13564;SDS011;6854;48.096;11.278;2023-09-30T18:57:41;31.43;;;14.50;;
13564;SDS011;6854;48.096;11.278;2023-09-30T19:00:08;38.43;;;13.67;;
13564;SDS011;6854;48.096;11.278;2023-09-30T19:02:38;46.63;;;13.93;;
13564;SDS011;6854;48.096;11.278;2023-09-30T19:05:04;36.53;;;14.30;;
13564;SDS011;6854;48.096;11.278;2023-09-30T19:07:31;30.63;;;13.13;;
13564;SDS011;6854;48.096;11.278;2023-09-30T19:09:59;32.33;;;14.07;;
13564;SDS011;6854;48.096;11.278;2023-09-30T19:12:25;35.00;;;13.57;;
13564;SDS011;6854;48.096;11.278;2023-09-30T19:14:51;32.63;;;13.97;;
13564;SDS011;6854;48.096;11.278;2023-09-30T19:17:17;36.53;;;13.43;;
13564;SDS011;6854;48.096;11.278;2023-09-30T19:19:44;29.17;;;13.20;;
13564;SDS011;6854;48.096;11.278;2023-09-30T19:22:10;25.43;;;11.40;;
13564;SDS011;6854;48.096;11.278;2023-09-30T19:24:36;25.07;;;11.13;;
13564;SDS011;6854;48.096;11.278;2023-09-30T19:27:02;31.20;;;13.43;;
13564;SDS011;6854;48.096;11.278;2023-09-30T19:29:29;29.93;;;12.60;;
13564;SDS011;6854;48.096;11.278;2023-09-30T19:31:58;31.93;;;13.50;;
13564;SDS011;6854;48.096;11.278;2023-09-30T19:34:25;31.07;;;13.53;;
13564;SDS011;6854;48.096;11.278;2023-09-30T19:36:51;32.73;;;14.10;;
13564;SDS011;6854;48.096;11.278;2023-09-30T19:39:17;34.83;;;14.07;;
13564;SDS011;6854;48.096;11.278;2023-09-30T19:41:43;36.30;;;15.10;;
13564;SDS011;6854;48.096;11.278;2023-09-30T19:44:09;45.10;;;16.80;;
13564;SDS011;6854;48.096;11.278;2023-09-30T19:46:35;44.93;;;15.80;;
13564;SDS011;6854;48.096;11.278;2023-09-30T19:49:01;39.27;;;16.70;;
13564;SDS011;6854;48.096;11.278;2023-09-30T19:51:27;37.80;;;15.43;;
13564;SDS011;6854;48.096;11.278;2023-09-30T19:54:00;43.23;;;15.07;;
13564;SDS011;6854;48.096;11.278;2023-09-30T19:56:26;36.27;;;14.33;;
13564;SDS011;6854;48.096;11.278;2023-09-30T19:58:52;48.70;;;15.10;;
13564;SDS011;6854;48.096;11.278;2023-09-30T20:01:18;33.10;;;13.23;;
13564;SDS011;6854;48.096;11.278;2023-09-30T20:03:44;39.17;;;14.57;;
13564;SDS011;6854;48.096;11.278;2023-09-30T20:06:17;42.50;;;15.27;;
13564;SDS011;6854;48.096;11.278;2023-09-30T20:08:47;40.70;;;15.07;;
13564;SDS011;6854;48.096;11.278;2023-09-30T20:11:17;44.60;;;15.40;;
13564;SDS011;6854;48.096;11.278;2023-09-30T20:13:43;45.33;;;15.00;;
13564;SDS011;6854;48.096;11.278;2023-09-30T20:16:11;39.90;;;15.60;;
13564;SDS011;6854;48.096;11.278;2023-09-30T20:18:38;40.53;;;15.67;;
13564;SDS011;6854;48.096;11.278;2023-09-30T20:21:06;43.60;;;16.30;;
13564;SDS011;6854;48.096;11.278;2023-09-30T20:23:36;43.33;;;15.90;;
13564;SDS011;6854;48.096;11.278;2023-09-30T20:26:03;54.03;;;16.47;;
13564;SDS011;6854;48.096;11.278;2023-09-30T20:28:32;45.80;;;17.10;;
13564;SDS011;6854;48.096;11.278;2023-09-30T20:31:00;58.40;;;17.60;;
13564;SDS011;6854;48.096;11.278;2023-09-30T20:33:26;49.97;;;16.90;;
13564;SDS011;6854;48.096;11.278;2023-09-30T20:35:52;43.93;;;15.57;;
13564;SDS011;6854;48.096;11.278;2023-09-30T20:38:18;52.67;;;17.53;;
13564;SDS011;6854;48.096;11.278;2023-09-30T20:40:45;39.90;;;13.67;;
13564;SDS011;6854;48.096;11.278;2023-09-30T20:43:13;35.53;;;15.27;;
13564;SDS011;6854;48.096;11.278;2023-09-30T20:45:40;48.20;;;17.10;;
13564;SDS011;6854;48.096;11.278;2023-09-30T20:48:09;50.67;;;17.40;;
13564;SDS011;6854;48.096;11.278;2023-09-30T20:50:36;47.53;;;16.40;;
13564;SDS011;6854;48.096;11.278;2023-09-30T20:53:09;44.40;;;16.50;;
13564;SDS011;6854;48.096;11.278;2023-09-30T20:55:37;50.40;;;16.57;;
13564;SDS011;6854;48.096;11.278;2023-09-30T20:58:03;53.47;;;17.17;;
13564;SDS011;6854;48.096;11.278;2023-09-30T21:00:31;42.87;;;17.30;;
13564;SDS011;6854;48.096;11.278;2023-09-30T21:03:00;47.77;;;17.00;;
13564;SDS011;6854;48.096;11.278;2023-09-30T21:05:29;54.63;;;18.10;;
13564;SDS011;6854;48.096;11.278;2023-09-30T21:07:57;57.30;;;18.07;;
13564;SDS011;6854;48.096;11.278;2023-09-30T21:10:26;51.43;;;17.57;;
13564;SDS011;6854;48.096;11.278;2023-09-30T21:13:05;56.70;;;17.60;;
13564;SDS011;6854;48.096;11.278;2023-09-30T21:15:32;56.23;;;19.20;;
13564;SDS011;6854;48.096;11.278;2023-09-30T21:18:00;45.40;;;17.00;;
13564;SDS011;6854;48.096;11.278;2023-09-30T21:20:27;58.33;;;19.03;;
13564;SDS011;6854;48.096;11.278;2023-09-30T21:22:54;58.93;;;18.33;;
13564;SDS011;6854;48.096;11.278;2023-09-30T21:25:28;53.37;;;18.10;;
13564;SDS011;6854;48.096;11.278;2023-09-30T21:27:57;49.20;;;18.70;;
13564;SDS011;6854;48.096;11.278;2023-09-30T21:30:24;59.17;;;19.63;;
13564;SDS011;6854;48.096;11.278;2023-09-30T21:32:52;63.13;;;19.77;;
13564;SDS011;6854;48.096;11.278;2023-09-30T21:35:19;57.00;;;19.30;;
13564;SDS011;6854;48.096;11.278;2023-09-30T21:37:47;50.40;;;17.50;;
13564;SDS011;6854;48.096;11.278;2023-09-30T21:40:13;64.40;;;19.37;;
13564;SDS011;6854;48.096;11.278;2023-09-30T21:42:41;58.50;;;19.60;;
13564;SDS011;6854;48.096;11.278;2023-09-30T21:45:07;56.93;;;18.80;;
13564;SDS011;6854;48.096;11.278;2023-09-30T21:47:33;57.30;;;18.60;;
13564;SDS011;6854;48.096;11.278;2023-09-30T21:49:59;51.00;;;18.10;;
13564;SDS011;6854;48.096;11.278;2023-09-30T21:52:28;56.63;;;19.40;;
13564;SDS011;6854;48.096;11.278;2023-09-30T21:57:43;46.00;;;17.50;;
13564;SDS011;6854;48.096;11.278;2023-09-30T22:00:10;50.23;;;19.10;;
13564;SDS011;6854;48.096;11.278;2023-09-30T22:02:43;52.20;;;18.13;;
13564;SDS011;6854;48.096;11.278;2023-09-30T22:05:11;47.10;;;18.30;;
13564;SDS011;6854;48.096;11.278;2023-09-30T22:07:38;51.80;;;16.97;;
13564;SDS011;6854;48.096;11.278;2023-09-30T22:10:05;51.60;;;18.40;;
13564;SDS011;6854;48.096;11.278;2023-09-30T22:12:33;55.03;;;18.37;;
13564;SDS011;6854;48.096;11.278;2023-09-30T22:15:01;56.30;;;17.80;;
13564;SDS011;6854;48.096;11.278;2023-09-30T22:17:27;52.97;;;18.93;;
13564;SDS011;6854;48.096;11.278;2023-09-30T22:19:53;66.50;;;20.50;;
13564;SDS011;6854;48.096;11.278;2023-09-30T22:22:20;66.80;;;21.13;;
13564;SDS011;6854;48.096;11.278;2023-09-30T22:24:47;55.80;;;19.70;;
13564;SDS011;6854;48.096;11.278;2023-09-30T22:27:19;60.17;;;20.40;;
13564;SDS011;6854;48.096;11.278;2023-09-30T22:29:48;64.43;;;20.03;;
13564;SDS011;6854;48.096;11.278;2023-09-30T22:32:15;61.63;;;20.40;;
13564;SDS011;6854;48.096;11.278;2023-09-30T22:34:41;66.23;;;19.60;;
13564;SDS011;6854;48.096;11.278;2023-09-30T22:37:09;55.07;;;19.90;;
13564;SDS011;6854;48.096;11.278;2023-09-30T22:39:39;64.63;;;20.77;;
13564;SDS011;6854;48.096;11.278;2023-09-30T22:42:06;57.20;;;20.77;;
13564;SDS011;6854;48.096;11.278;2023-09-30T22:44:33;69.07;;;21.57;;
13564;SDS011;6854;48.096;11.278;2023-09-30T22:47:00;73.17;;;22.57;;
13564;SDS011;6854;48.096;11.278;2023-09-30T22:49:26;71.60;;;22.70;;
13564;SDS011;6854;48.096;11.278;2023-09-30T22:51:52;63.30;;;20.17;;
13564;SDS011;6854;48.096;11.278;2023-09-30T22:54:19;63.70;;;21.43;;
13564;SDS011;6854;48.096;11.278;2023-09-30T22:59:16;75.43;;;21.40;;
13564;SDS011;6854;48.096;11.278;2023-09-30T23:01:42;65.23;;;20.90;;
13564;SDS011;6854;48.096;11.278;2023-09-30T23:04:09;61.83;;;20.83;;
13564;SDS011;6854;48.096;11.278;2023-09-30T23:06:36;71.93;;;22.27;;
13564;SDS011;6854;48.096;11.278;2023-09-30T23:09:05;71.37;;;20.60;;
13564;SDS011;6854;48.096;11.278;2023-09-30T23:11:32;69.67;;;20.53;;
13564;SDS011;6854;48.096;11.278;2023-09-30T23:13:58;70.73;;;22.77;;
13564;SDS011;6854;48.096;11.278;2023-09-30T23:16:25;75.07;;;22.00;;
13564;SDS011;6854;48.096;11.278;2023-09-30T23:18:51;71.87;;;21.57;;
13564;SDS011;6854;48.096;11.278;2023-09-30T23:21:17;68.57;;;22.30;;
13564;SDS011;6854;48.096;11.278;2023-09-30T23:23:44;64.40;;;21.20;;
13564;SDS011;6854;48.096;11.278;2023-09-30T23:26:10;73.73;;;20.30;;
13564;SDS011;6854;48.096;11.278;2023-09-30T23:28:37;63.03;;;21.00;;
13564;SDS011;6854;48.096;11.278;2023-09-30T23:31:03;73.47;;;20.43;;
13564;SDS011;6854;48.096;11.278;2023-09-30T23:33:29;69.93;;;20.73;;
13564;SDS011;6854;48.096;11.278;2023-09-30T23:35:59;63.57;;;21.63;;
13564;SDS011;6854;48.096;11.278;2023-09-30T23:38:27;58.77;;;21.60;;
13564;SDS011;6854;48.096;11.278;2023-09-30T23:40:54;90.00;;;22.60;;
13564;SDS011;6854;48.096;11.278;2023-09-30T23:43:21;73.03;;;22.60;;
13564;SDS011;6854;48.096;11.278;2023-09-30T23:45:53;85.73;;;23.37;;
13564;SDS011;6854;48.096;11.278;2023-09-30T23:48:20;89.43;;;25.20;;
13564;SDS011;6854;48.096;11.278;2023-09-30T23:50:46;67.77;;;22.63;;
13564;SDS011;6854;48.096;11.278;2023-09-30T23:53:15;67.73;;;22.77;;
13564;SDS011;6854;48.096;11.278;2023-09-30T23:55:45;70.27;;;24.27;;
13564;SDS011;6854;48.096;11.278;2023-09-30T23:58:12;72.03;;;25.07;;
